createdAt,value
2022-09-14T00:02:13.724Z,11.84
2022-09-14T00:04:59.848Z,12.60
2022-09-14T00:07:45.088Z,13.09
2022-09-14T00:10:30.980Z,11.97
2022-09-14T00:13:16.238Z,12.02
2022-09-14T00:16:07.012Z,12.44
2022-09-14T00:18:54.218Z,12.04
2022-09-14T00:21:40.105Z,13.22
2022-09-14T00:24:28.296Z,13.22
2022-09-14T00:27:13.975Z,13.14
2022-09-14T00:29:59.325Z,12.44
2022-09-14T00:32:44.938Z,12.77
2022-09-14T00:35:30.309Z,13.25
2022-09-14T00:38:15.728Z,13.30
2022-09-14T00:41:02.227Z,12.18
2022-09-14T00:44:13.821Z,13.39
2022-09-14T00:47:02.658Z,12.40
2022-09-14T00:49:48.383Z,13.41
2022-09-14T00:52:37.473Z,13.41
2022-09-14T00:55:24.075Z,12.41
2022-09-14T00:58:09.557Z,13.39
2022-09-14T01:00:55.064Z,12.88
2022-09-14T01:03:40.681Z,12.51
2022-09-14T01:06:36.051Z,12.22
2022-09-14T01:09:46.569Z,13.44
2022-09-14T01:12:50.982Z,13.47
2022-09-14T01:15:48.707Z,13.30
2022-09-14T01:18:43.193Z,12.20
2022-09-14T01:21:38.333Z,13.29
2022-09-14T01:24:43.245Z,11.95
2022-09-14T01:27:41.866Z,12.63
2022-09-14T01:30:31.947Z,12.71
2022-09-14T01:33:57.329Z,13.67
2022-09-14T01:36:51.731Z,13.07
2022-09-14T01:39:38.002Z,13.74
2022-09-14T01:42:26.652Z,13.46
2022-09-14T01:45:21.244Z,12.83
2022-09-14T01:48:08.883Z,13.77
2022-09-14T01:50:58.532Z,13.53
2022-09-14T01:53:49.526Z,12.64
2022-09-14T01:56:41.516Z,13.76
2022-09-14T01:59:31.712Z,13.06
2022-09-14T02:02:23.960Z,13.29
2022-09-14T02:05:12.481Z,13.87
2022-09-14T02:07:58.449Z,13.69
2022-09-14T02:10:44.197Z,12.89
2022-09-14T02:13:29.883Z,12.98
2022-09-14T02:16:15.650Z,13.00
2022-09-14T02:19:01.744Z,13.79
2022-09-14T02:21:47.338Z,13.47
2022-09-14T02:24:33.102Z,13.85
2022-09-14T02:27:18.557Z,13.87
2022-09-14T02:30:04.773Z,12.74
2022-09-14T02:32:59.189Z,13.88
2022-09-14T02:35:53.942Z,13.90
2022-09-14T02:39:17.635Z,13.91
2022-09-14T02:42:09.894Z,13.90
2022-09-14T02:45:07.722Z,13.91
2022-09-14T02:48:31.863Z,13.88
2022-09-14T02:51:32.725Z,13.88
2022-09-14T02:54:45.234Z,13.66
2022-09-14T02:57:30.674Z,13.93
2022-09-14T03:00:16.082Z,13.95
2022-09-14T03:03:01.367Z,13.11
2022-09-14T03:05:47.613Z,13.83
2022-09-14T03:08:34.066Z,13.51
2022-09-14T03:11:19.979Z,13.94
2022-09-14T03:14:05.894Z,13.94
2022-09-14T03:16:51.199Z,13.95
2022-09-14T03:19:36.584Z,13.83
2022-09-14T03:22:21.940Z,12.85
2022-09-14T03:25:07.660Z,12.90
2022-09-14T03:27:57.183Z,13.78
2022-09-14T03:30:42.529Z,11.75
2022-09-14T03:33:28.082Z,12.68
2022-09-14T03:36:16.889Z,12.83
2022-09-14T03:39:02.503Z,13.77
2022-09-14T03:41:47.856Z,13.55
2022-09-14T03:44:33.241Z,13.68
2022-09-14T03:47:18.657Z,13.25
2022-09-14T03:50:04.359Z,12.83
2022-09-14T03:52:49.652Z,12.94
2022-09-14T03:55:35.009Z,13.41
2022-09-14T03:58:20.688Z,12.58
2022-09-14T04:01:07.801Z,13.69
2022-09-14T04:03:53.267Z,13.17
2022-09-14T04:06:38.743Z,13.55
2022-09-14T04:09:23.999Z,12.60
2022-09-14T04:12:09.710Z,13.66
2022-09-14T04:14:55.301Z,13.13
2022-09-14T04:17:40.905Z,13.57
2022-09-14T04:20:26.327Z,12.52
2022-09-14T04:23:12.297Z,13.69
2022-09-14T04:25:57.718Z,13.73
2022-09-14T04:28:43.661Z,13.72
2022-09-14T04:31:29.754Z,12.80
2022-09-14T04:34:15.338Z,13.21
2022-09-14T04:37:00.613Z,13.80
2022-09-14T04:39:46.649Z,13.82
2022-09-14T04:42:31.978Z,12.73
2022-09-14T04:45:17.275Z,13.84
2022-09-14T04:48:03.103Z,13.79
2022-09-14T04:50:48.540Z,13.05
2022-09-14T04:53:35.348Z,13.97
2022-09-14T04:56:22.654Z,14.00
2022-09-14T04:59:08.504Z,13.05
2022-09-14T05:01:54.251Z,14.03
2022-09-14T05:04:40.444Z,14.10
2022-09-14T05:07:25.985Z,14.08
2022-09-14T05:10:11.573Z,13.81
2022-09-14T05:12:56.802Z,13.94
2022-09-14T05:15:42.637Z,13.39
2022-09-14T05:18:28.112Z,14.36
2022-09-14T05:21:17.469Z,13.59
2022-09-14T05:24:21.565Z,14.51
2022-09-14T05:27:07.185Z,13.67
2022-09-14T05:29:53.361Z,13.98
2022-09-14T05:32:39.139Z,14.43
2022-09-14T05:35:24.569Z,14.72
2022-09-14T05:38:09.959Z,14.87
2022-09-14T05:40:55.564Z,13.72
2022-09-14T05:43:41.688Z,13.98
2022-09-14T05:46:27.345Z,14.96
2022-09-14T05:49:12.596Z,14.48
2022-09-14T05:51:57.933Z,14.32
2022-09-14T05:54:43.259Z,14.83
2022-09-14T05:57:28.583Z,14.30
2022-09-14T06:00:15.047Z,14.18
2022-09-14T06:03:01.124Z,15.11
2022-09-14T06:05:46.581Z,14.05
2022-09-14T06:08:32.852Z,14.95
2022-09-14T06:11:22.590Z,14.79
2022-09-14T06:14:08.461Z,15.08
2022-09-14T06:16:53.984Z,15.02
2022-09-14T06:19:39.384Z,15.37
2022-09-14T06:22:24.679Z,15.44
2022-09-14T06:25:11.513Z,15.53
2022-09-14T06:27:57.171Z,15.60
2022-09-14T06:30:44.270Z,15.74
2022-09-14T06:33:31.393Z,14.99
2022-09-14T06:36:19.746Z,15.17
2022-09-14T06:39:05.241Z,15.48
2022-09-14T06:41:53.946Z,16.25
2022-09-14T06:44:40.172Z,16.22
2022-09-14T06:47:25.529Z,15.65
2022-09-14T06:50:10.831Z,16.23
2022-09-14T06:52:56.135Z,16.29
2022-09-14T06:55:41.582Z,15.23
2022-09-14T06:58:27.114Z,16.12
2022-09-14T07:01:15.078Z,16.30
2022-09-14T07:04:01.583Z,14.81
2022-09-14T07:06:49.699Z,15.17
2022-09-14T07:09:36.637Z,15.94
2022-09-14T07:12:22.241Z,15.47
2022-09-14T07:15:08.443Z,15.59
2022-09-14T07:17:54.050Z,16.43
2022-09-14T07:20:39.598Z,16.18
2022-09-14T07:23:24.787Z,16.43
2022-09-14T07:26:19.091Z,16.67
2022-09-14T07:29:06.930Z,16.78
2022-09-14T07:31:54.074Z,16.17
2022-09-14T07:34:39.642Z,17.12
2022-09-14T07:37:25.351Z,16.40
2022-09-14T07:40:11.214Z,16.53
2022-09-14T07:42:57.707Z,17.57
2022-09-14T07:45:43.158Z,17.69
2022-09-14T07:48:28.484Z,18.03
2022-09-14T07:51:14.460Z,18.23
2022-09-14T07:54:01.753Z,17.58
2022-09-14T07:56:47.438Z,17.55
2022-09-14T07:59:37.346Z,17.74
2022-09-14T08:02:24.121Z,18.53
2022-09-14T08:05:10.174Z,17.60
2022-09-14T08:07:56.974Z,18.30
2022-09-14T08:10:42.343Z,18.28
2022-09-14T08:13:27.772Z,18.39
2022-09-14T08:16:13.989Z,17.44
2022-09-14T08:19:01.536Z,18.54
2022-09-14T08:21:47.952Z,18.55
2022-09-14T08:24:33.558Z,17.71
2022-09-14T08:27:18.930Z,18.59
2022-09-14T08:30:05.308Z,17.78
2022-09-14T08:32:50.711Z,18.72
2022-09-14T08:35:57.549Z,18.62
2022-09-14T08:38:43.423Z,18.34
2022-09-14T08:41:37.796Z,18.81
2022-09-14T08:44:31.426Z,18.89
2022-09-14T08:47:28.903Z,17.77
2022-09-14T08:50:18.337Z,18.30
2022-09-14T08:53:05.713Z,17.85
2022-09-14T08:56:00.624Z,18.63
2022-09-14T08:58:51.928Z,18.93
2022-09-14T09:01:37.280Z,19.00
2022-09-14T09:04:28.788Z,19.04
2022-09-14T09:07:32.699Z,19.08
2022-09-14T09:10:19.039Z,18.74
2022-09-14T09:13:06.893Z,18.28
2022-09-14T09:15:55.116Z,19.42
2022-09-14T09:19:13.919Z,19.68
2022-09-14T09:22:03.288Z,19.85
2022-09-14T09:24:52.646Z,19.14
2022-09-14T09:27:37.633Z,19.93
2022-09-14T09:30:29.606Z,19.83
2022-09-14T09:33:23.256Z,20.15
2022-09-14T09:36:24.783Z,20.54
2022-09-14T09:39:10.385Z,19.62
2022-09-14T09:42:06.665Z,20.47
2022-09-14T09:45:01.313Z,20.49
2022-09-14T09:47:48.704Z,19.69
2022-09-14T09:50:34.116Z,20.69
2022-09-14T09:53:22.914Z,19.84
2022-09-14T09:56:16.562Z,20.16
2022-09-14T09:59:02.967Z,20.03
2022-09-14T10:01:48.891Z,20.58
2022-09-14T10:04:35.226Z,21.03
2022-09-14T10:07:22.474Z,21.29
2022-09-14T10:10:14.380Z,20.94
2022-09-14T10:13:00.168Z,21.35
2022-09-14T10:15:47.037Z,21.33
2022-09-14T10:18:32.988Z,21.25
2022-09-14T10:21:23.507Z,21.07
2022-09-14T10:24:15.070Z,21.00
2022-09-14T10:27:00.561Z,20.21
2022-09-14T10:29:49.655Z,20.48
2022-09-14T10:32:35.908Z,20.50
2022-09-14T10:35:28.286Z,20.75
2022-09-14T10:38:39.072Z,20.66
2022-09-14T10:41:45.513Z,19.59
2022-09-14T10:44:57.789Z,20.24
2022-09-14T10:48:14.891Z,20.34
2022-09-14T10:51:31.567Z,20.26
2022-09-14T10:54:31.047Z,20.22
2022-09-14T10:57:34.789Z,20.24
2022-09-14T11:00:21.141Z,20.24
2022-09-14T11:03:25.571Z,20.25
2022-09-14T11:06:29.325Z,20.26
2022-09-14T11:09:47.047Z,20.29
2022-09-14T11:12:41.911Z,20.31
2022-09-14T11:16:06.046Z,20.34
2022-09-14T11:18:51.578Z,20.40
2022-09-14T11:21:46.278Z,20.45
2022-09-14T11:24:56.358Z,20.52
2022-09-14T11:27:52.464Z,20.23
2022-09-14T11:31:04.833Z,20.62
2022-09-14T11:34:04.336Z,20.72
2022-09-14T11:36:59.302Z,20.75
2022-09-14T11:43:27.255Z,20.91
2022-09-14T11:46:25.040Z,20.47
2022-09-14T11:49:29.065Z,20.70
2022-09-14T11:52:23.635Z,20.96
2022-09-14T11:55:15.340Z,21.07
2022-09-14T11:58:05.466Z,21.24
2022-09-14T12:01:05.012Z,20.50
2022-09-14T12:03:53.352Z,21.40
2022-09-14T12:06:38.895Z,21.47
2022-09-14T12:09:25.146Z,21.51
2022-09-14T12:12:31.672Z,21.23
2022-09-14T12:15:34.400Z,21.57
2022-09-14T12:18:23.293Z,21.58
2022-09-14T12:21:27.383Z,21.72
2022-09-14T12:24:16.123Z,21.17
2022-09-14T12:27:15.411Z,20.99
2022-09-14T12:30:00.889Z,20.74
2022-09-14T12:32:46.401Z,21.72
2022-09-14T12:35:38.028Z,21.70
2022-09-14T12:38:29.701Z,21.68
2022-09-14T12:41:15.188Z,21.63
2022-09-14T12:44:00.553Z,21.61
2022-09-14T12:46:46.126Z,21.42
2022-09-14T12:49:36.152Z,21.40
2022-09-14T12:52:57.486Z,21.47
2022-09-14T12:55:56.979Z,20.92
2022-09-14T12:59:06.203Z,21.37
2022-09-14T13:02:23.512Z,21.23
2022-09-14T13:05:16.192Z,21.26
2022-09-14T13:08:10.251Z,21.21
2022-09-14T13:11:00.523Z,21.18
2022-09-14T13:13:51.379Z,21.00
2022-09-14T13:16:44.014Z,20.06
2022-09-14T13:19:32.919Z,20.06
2022-09-14T13:22:25.144Z,21.05
2022-09-14T13:25:32.492Z,20.97
2022-09-14T13:28:20.971Z,21.02
2022-09-14T13:31:14.179Z,21.04
2022-09-14T13:34:03.215Z,20.50
2022-09-14T13:36:49.677Z,20.13
2022-09-14T13:39:42.147Z,20.12
2022-09-14T13:42:27.747Z,20.87
2022-09-14T13:45:14.471Z,20.89
2022-09-14T13:48:00.882Z,20.27
2022-09-14T13:50:51.157Z,20.61
2022-09-14T13:53:42.863Z,21.08
2022-09-14T13:56:31.410Z,20.92
2022-09-14T13:59:21.458Z,20.26
2022-09-14T14:02:13.366Z,20.65
2022-09-14T14:04:58.773Z,21.02
2022-09-14T14:07:46.019Z,21.05
2022-09-14T14:10:40.470Z,20.77
2022-09-14T14:13:28.719Z,19.95
2022-09-14T14:16:18.180Z,20.07
2022-09-14T14:19:04.347Z,20.77
2022-09-14T14:21:50.561Z,20.69
2022-09-14T14:24:45.194Z,20.76
2022-09-14T14:27:44.838Z,20.77
2022-09-14T14:30:31.941Z,20.74
2022-09-14T14:33:19.396Z,20.54
2022-09-14T14:36:09.784Z,20.49
2022-09-14T14:38:56.547Z,19.69
2022-09-14T14:41:42.806Z,20.54
2022-09-14T14:44:29.125Z,20.51
2022-09-14T14:47:16.248Z,19.95
2022-09-14T14:50:03.962Z,20.39
2022-09-14T14:52:51.531Z,20.26
2022-09-14T14:55:37.666Z,20.50
2022-09-14T14:58:24.458Z,20.34
2022-09-14T15:01:09.791Z,20.43
2022-09-14T15:03:55.465Z,20.12
2022-09-14T15:06:41.071Z,20.39
2022-09-14T15:09:28.362Z,20.13
2022-09-14T15:12:14.109Z,20.25
2022-09-14T15:14:59.813Z,20.21
2022-09-14T15:17:47.441Z,18.96
2022-09-14T15:20:33.196Z,19.15
2022-09-14T15:23:19.073Z,20.15
2022-09-14T15:26:04.808Z,20.13
2022-09-14T15:28:51.711Z,20.10
2022-09-14T15:31:37.301Z,20.09
2022-09-14T15:34:23.552Z,20.07
2022-09-14T15:37:09.490Z,20.00
2022-09-14T15:39:55.736Z,19.77
2022-09-14T15:42:41.601Z,19.90
2022-09-14T15:45:27.805Z,19.80
2022-09-14T15:48:15.834Z,19.75
2022-09-14T15:51:10.006Z,19.82
2022-09-14T15:53:56.055Z,19.33
2022-09-14T15:56:42.163Z,19.76
2022-09-14T15:59:28.676Z,18.64
2022-09-14T16:02:15.039Z,19.63
2022-09-14T16:05:00.938Z,19.61
2022-09-14T16:07:46.466Z,19.58
2022-09-14T16:10:32.295Z,19.57
2022-09-14T16:13:17.713Z,19.41
2022-09-14T16:16:16.029Z,19.10
2022-09-14T16:19:14.050Z,19.29
2022-09-14T16:22:01.066Z,19.26
2022-09-14T16:24:47.416Z,18.71
2022-09-14T16:27:32.964Z,18.97
2022-09-14T16:30:19.075Z,18.81
2022-09-14T16:33:04.670Z,18.82
2022-09-14T16:35:51.066Z,18.44
2022-09-14T16:38:37.640Z,18.68
2022-09-14T16:41:24.034Z,18.33
2022-09-14T16:44:19.599Z,17.48
2022-09-14T16:47:05.291Z,17.65
2022-09-14T16:49:51.682Z,18.32
2022-09-14T16:52:37.305Z,17.49
2022-09-14T16:55:22.920Z,18.33
2022-09-14T16:58:08.387Z,18.30
2022-09-14T17:00:54.503Z,17.94
2022-09-14T17:03:40.871Z,17.12
2022-09-14T17:06:30.574Z,18.19
2022-09-14T17:09:30.028Z,18.14
2022-09-14T17:12:17.066Z,18.05
2022-09-14T17:15:02.537Z,17.10
2022-09-14T17:17:50.934Z,17.82
2022-09-14T17:20:38.214Z,17.68
2022-09-14T17:23:24.350Z,17.76
2022-09-14T17:26:11.535Z,17.98
2022-09-14T17:28:58.923Z,17.99
2022-09-14T17:31:46.053Z,17.01
2022-09-14T17:34:32.543Z,17.95
2022-09-14T17:37:18.824Z,17.71
2022-09-14T17:40:08.498Z,17.85
2022-09-14T17:42:54.439Z,17.85
2022-09-14T17:45:41.085Z,16.73
2022-09-14T17:48:31.643Z,17.63
2022-09-14T17:51:20.818Z,17.74
2022-09-14T17:54:06.815Z,17.74
2022-09-14T17:56:52.679Z,16.74
2022-09-14T17:59:38.724Z,17.26
2022-09-14T18:02:24.962Z,17.72
2022-09-14T18:05:11.016Z,17.67
2022-09-14T18:07:57.129Z,17.49
2022-09-14T18:10:44.036Z,17.44
2022-09-14T18:13:29.508Z,17.48
2022-09-14T18:16:16.790Z,17.24
2022-09-14T18:19:03.220Z,17.04
2022-09-14T18:21:52.426Z,17.38
2022-09-14T18:24:38.701Z,17.36
2022-09-14T18:27:25.115Z,17.29
2022-09-14T18:30:15.005Z,17.29
2022-09-14T18:33:06.872Z,17.25
2022-09-14T18:35:53.904Z,16.49
2022-09-14T18:38:39.877Z,17.22
2022-09-14T18:41:35.781Z,17.21
2022-09-14T18:44:22.439Z,17.19
2022-09-14T18:47:15.743Z,16.62
2022-09-14T18:50:07.168Z,17.14
2022-09-14T18:52:53.788Z,17.09
2022-09-14T18:55:39.927Z,17.04
2022-09-14T18:58:25.977Z,16.97
2022-09-14T19:01:13.079Z,16.79
2022-09-14T19:03:59.323Z,16.96
2022-09-14T19:06:45.153Z,16.92
2022-09-14T19:09:31.262Z,16.72
2022-09-14T19:12:17.801Z,16.86
2022-09-14T19:15:04.613Z,16.98
2022-09-14T19:17:50.968Z,16.45
2022-09-14T19:21:04.914Z,16.84
2022-09-14T19:23:46.998Z,15.80
2022-09-14T19:26:44.603Z,16.94
2022-09-14T19:29:32.926Z,16.83
2022-09-14T19:32:19.491Z,16.62
2022-09-14T19:35:06.180Z,16.69
2022-09-14T19:37:53.232Z,16.84
2022-09-14T19:40:39.329Z,16.84
2022-09-14T19:43:26.042Z,16.85
2022-09-14T19:46:14.449Z,16.80
2022-09-14T19:49:00.214Z,16.32
2022-09-14T19:51:47.143Z,16.37
2022-09-14T19:54:33.250Z,16.32
2022-09-14T19:57:19.715Z,16.66
2022-09-14T20:00:09.519Z,16.78
2022-09-14T20:02:54.942Z,16.76
2022-09-14T20:05:40.321Z,16.77
2022-09-14T20:08:25.826Z,16.76
2022-09-14T20:11:17.652Z,16.76
2022-09-14T20:14:07.797Z,15.57
2022-09-14T20:16:56.842Z,15.65
2022-09-14T20:19:42.585Z,16.71
2022-09-14T20:22:28.330Z,15.67
2022-09-14T20:25:13.827Z,16.61
2022-09-14T20:27:59.159Z,15.86
2022-09-14T20:30:44.642Z,16.11
2022-09-14T20:33:30.655Z,16.34
2022-09-14T20:36:18.974Z,16.41
2022-09-14T20:39:05.218Z,15.56
2022-09-14T20:41:52.818Z,16.49
2022-09-14T20:44:38.290Z,16.55
2022-09-14T20:47:24.775Z,15.53
2022-09-14T20:50:12.750Z,16.46
2022-09-14T20:52:58.278Z,15.56
2022-09-14T20:55:43.993Z,16.34
2022-09-14T20:58:29.846Z,15.56
2022-09-14T21:01:18.398Z,16.64
2022-09-14T21:04:07.242Z,16.66
2022-09-14T21:06:55.279Z,16.64
2022-09-14T21:09:40.822Z,15.58
2022-09-14T21:12:27.970Z,16.17
2022-09-14T21:15:13.535Z,15.76
2022-09-14T21:17:59.010Z,16.53
2022-09-14T21:20:44.723Z,16.68
2022-09-14T21:23:30.273Z,16.41
2022-09-14T21:26:16.497Z,16.48
2022-09-14T21:29:06.326Z,15.68
2022-09-14T21:31:53.186Z,16.11
2022-09-14T21:34:38.813Z,16.60
2022-09-14T21:37:26.592Z,16.52
2022-09-14T21:40:13.617Z,14.77
2022-09-14T21:42:58.919Z,15.76
2022-09-14T21:45:45.325Z,15.39
2022-09-14T21:48:31.224Z,15.56
2022-09-14T21:51:24.437Z,16.20
2022-09-14T21:54:12.024Z,16.50
2022-09-14T21:56:57.774Z,16.48
2022-09-14T21:59:43.433Z,16.22
2022-09-14T22:02:28.734Z,16.40
2022-09-14T22:05:14.777Z,16.34
2022-09-14T22:08:00.993Z,16.35
2022-09-14T22:10:46.856Z,16.33
2022-09-14T22:13:33.278Z,16.23
2022-09-14T22:16:19.005Z,16.07
2022-09-14T22:19:08.845Z,15.26
2022-09-14T22:21:54.625Z,16.34
2022-09-14T22:24:42.069Z,16.33
2022-09-14T22:27:27.943Z,15.38
2022-09-14T22:30:14.127Z,16.27
2022-09-14T22:32:59.761Z,16.21
2022-09-14T22:35:53.374Z,16.24
2022-09-14T22:38:41.120Z,15.96
2022-09-14T22:41:27.731Z,16.03
2022-09-14T22:44:13.774Z,16.23
2022-09-14T22:46:59.504Z,16.15
2022-09-14T22:49:45.599Z,16.26
2022-09-14T22:52:31.241Z,16.22
2022-09-14T22:55:16.885Z,16.28
2022-09-14T22:58:02.662Z,16.25
2022-09-14T23:00:48.672Z,16.22
2022-09-14T23:03:34.738Z,16.30
2022-09-14T23:06:20.200Z,16.31
2022-09-14T23:09:08.802Z,16.31
2022-09-14T23:11:54.630Z,15.98
2022-09-14T23:14:40.079Z,16.08
2022-09-14T23:17:25.912Z,15.68
2022-09-14T23:20:12.324Z,16.32
2022-09-14T23:22:58.219Z,16.33
2022-09-14T23:25:44.032Z,15.34
2022-09-14T23:28:30.412Z,15.50
2022-09-14T23:31:15.997Z,16.39
2022-09-14T23:34:04.239Z,16.09
2022-09-14T23:36:50.042Z,16.33
2022-09-14T23:39:35.833Z,16.39
2022-09-14T23:42:21.351Z,16.37
2022-09-14T23:45:07.508Z,16.04
2022-09-14T23:47:52.928Z,16.44
2022-09-14T23:50:38.737Z,16.44
2022-09-14T23:53:24.366Z,15.55
2022-09-14T23:56:10.890Z,16.48
2022-09-14T23:58:56.735Z,16.40
